createdAt,value
2019-03-01T00:01:09.749Z,31.07
2019-03-01T00:03:38.559Z,32.25
2019-03-01T00:06:22.292Z,32.70
2019-03-01T00:08:53.817Z,31.15
2019-03-01T00:11:53.686Z,32.30
2019-03-01T00:14:36.830Z,30.37
2019-03-01T00:17:33.958Z,29.52
2019-03-01T00:20:14.320Z,29.07
2019-03-01T00:23:02.313Z,30.97
2019-03-01T00:25:36.402Z,28.40
2019-03-01T00:28:35.251Z,31.00
2019-03-01T00:31:24.907Z,28.98
2019-03-01T00:34:05.140Z,29.37
2019-03-01T00:36:53.156Z,31.50
2019-03-01T00:39:36.827Z,31.52
2019-03-01T00:42:23.543Z,32.15
2019-03-01T00:44:52.010Z,30.48
2019-03-01T00:47:20.567Z,31.10
2019-03-01T00:49:49.039Z,32.38
2019-03-01T00:52:17.656Z,31.48
2019-03-01T00:54:46.260Z,33.20
2019-03-01T00:57:14.891Z,33.48
2019-03-01T00:59:43.436Z,32.75
2019-03-01T01:02:12.045Z,33.30
2019-03-01T01:04:40.590Z,33.90
2019-03-01T01:07:09.155Z,33.13
2019-03-01T01:15:10.661Z,30.52
2019-03-01T01:17:39.234Z,29.67
2019-03-01T01:20:09.763Z,28.52
2019-03-01T01:22:38.382Z,27.48
2019-03-01T01:25:07.017Z,27.32
2019-03-01T01:27:35.586Z,28.15
2019-03-01T01:30:06.132Z,25.45
2019-03-01T01:32:34.697Z,26.85
2019-03-01T01:35:03.311Z,26.07
2019-03-01T01:37:31.877Z,24.67
2019-03-01T01:40:00.460Z,23.00
2019-03-01T01:42:29.044Z,22.95
2019-03-01T01:44:57.580Z,22.22
2019-03-01T01:47:26.134Z,23.60
2019-03-01T01:49:54.672Z,21.77
2019-03-01T01:52:23.248Z,22.27
2019-03-01T01:54:51.857Z,21.52
2019-03-01T01:57:20.404Z,22.35
2019-03-01T01:59:48.881Z,22.80
2019-03-01T02:02:17.496Z,21.52
2019-03-01T02:04:46.111Z,21.87
2019-03-01T02:07:14.727Z,22.48
2019-03-01T02:09:43.336Z,23.27
2019-03-01T02:12:11.870Z,22.65
2019-03-01T02:14:40.506Z,22.60
2019-03-01T02:17:09.042Z,20.70
2019-03-01T02:19:37.680Z,20.25
2019-03-01T02:22:06.284Z,19.35
2019-03-01T02:24:34.822Z,21.73
2019-03-01T02:27:20.674Z,21.55
2019-03-01T02:29:49.352Z,19.55
2019-03-01T02:32:26.528Z,19.80
2019-03-01T02:34:55.037Z,20.00
2019-03-01T02:37:23.571Z,20.45
2019-03-01T02:39:52.306Z,18.90
2019-03-01T02:42:20.854Z,20.23
2019-03-01T02:44:49.397Z,19.95
2019-03-01T02:47:17.973Z,21.90
2019-03-01T02:49:46.581Z,20.30
2019-03-01T02:52:15.120Z,21.48
2019-03-01T02:54:43.588Z,22.37
2019-03-01T02:57:12.146Z,23.47
2019-03-01T02:59:40.748Z,24.47
2019-03-01T03:02:09.384Z,22.73
2019-03-01T03:04:37.981Z,21.45
2019-03-01T03:07:08.260Z,21.55
2019-03-01T03:09:36.791Z,20.92
2019-03-01T03:12:05.388Z,23.22
2019-03-01T03:14:33.854Z,22.27
2019-03-01T03:17:02.946Z,24.52
2019-03-01T03:19:31.596Z,22.32
2019-03-01T03:22:00.057Z,23.67
2019-03-01T03:24:28.620Z,24.02
2019-03-01T03:26:57.162Z,24.30
2019-03-01T03:29:25.724Z,23.00
2019-03-01T03:31:54.290Z,23.40
2019-03-01T03:34:22.826Z,23.35
2019-03-01T03:36:51.376Z,22.42
2019-03-01T03:39:19.829Z,20.68
2019-03-01T03:41:48.472Z,21.00
2019-03-01T03:44:17.228Z,21.42
2019-03-01T03:46:45.773Z,21.97
2019-03-01T03:49:14.243Z,22.82
2019-03-01T03:51:42.808Z,22.80
2019-03-01T03:54:11.257Z,22.27
2019-03-01T03:56:39.880Z,22.80
2019-03-01T03:59:08.498Z,22.02
2019-03-01T04:01:37.120Z,23.10
2019-03-01T04:04:05.741Z,23.30
2019-03-01T04:06:34.347Z,22.73
2019-03-01T04:09:04.566Z,22.85
2019-03-01T04:11:33.208Z,23.87
2019-03-01T04:14:01.760Z,23.07
2019-03-01T04:16:30.366Z,23.67
2019-03-01T04:18:58.872Z,24.50
2019-03-01T04:21:27.574Z,25.35
2019-03-01T04:23:56.129Z,23.45
2019-03-01T04:26:24.680Z,24.18
2019-03-01T04:28:53.212Z,24.87
2019-03-01T04:31:21.688Z,25.08
2019-03-01T04:33:50.157Z,24.80
2019-03-01T04:36:18.702Z,24.77
2019-03-01T04:38:47.277Z,22.90
2019-03-01T04:41:15.744Z,24.00
2019-03-01T04:43:44.391Z,23.42
2019-03-01T04:46:12.846Z,23.25
2019-03-01T04:48:41.498Z,22.98
2019-03-01T04:51:10.539Z,22.73
2019-03-01T04:53:39.074Z,23.35
2019-03-01T04:56:07.691Z,24.30
2019-03-01T04:58:36.231Z,24.20
2019-03-01T05:01:05.222Z,25.72
2019-03-01T05:03:33.769Z,25.48
2019-03-01T05:06:02.409Z,26.02
2019-03-01T05:08:30.874Z,23.77
2019-03-01T05:10:59.478Z,24.52
2019-03-01T05:13:27.964Z,24.85
2019-03-01T05:15:56.462Z,25.77
2019-03-01T05:18:25.008Z,25.27
2019-03-01T05:20:53.550Z,26.10
2019-03-01T05:23:22.028Z,25.12
2019-03-01T05:25:50.567Z,25.37
2019-03-01T05:28:19.111Z,26.60
2019-03-01T05:30:47.657Z,23.25
2019-03-01T05:33:16.265Z,19.85
2019-03-01T05:35:44.883Z,20.35
2019-03-01T05:38:21.575Z,19.98
2019-03-01T05:40:43.730Z,21.52
2019-03-01T05:43:12.261Z,22.55
2019-03-01T05:45:40.730Z,18.90
2019-03-01T05:48:09.298Z,25.72
2019-03-01T05:50:37.902Z,32.73
2019-03-01T05:53:06.397Z,18.30
2019-03-01T05:55:34.928Z,19.60
2019-03-01T05:58:35.554Z,20.05
2019-03-01T06:01:13.197Z,16.90
2019-03-01T06:03:59.782Z,20.57
2019-03-01T06:06:40.188Z,22.22
2019-03-01T06:09:28.205Z,24.27
2019-03-01T06:12:19.130Z,25.57
2019-03-01T06:15:13.124Z,21.17
2019-03-01T06:18:00.830Z,26.55
2019-03-01T06:23:41.333Z,17.75
2019-03-01T06:26:18.700Z,25.45
2019-03-01T06:29:02.131Z,40.85
2019-03-01T06:31:54.888Z,25.45
2019-03-01T06:34:38.173Z,27.42
2019-03-01T06:37:24.804Z,16.27
2019-03-01T06:40:23.670Z,16.87
2019-03-01T06:42:57.805Z,29.37
2019-03-01T06:45:48.181Z,22.17
2019-03-01T06:48:18.392Z,27.90
2019-03-01T06:50:51.440Z,31.20
2019-03-01T06:53:19.990Z,28.20
2019-03-01T06:55:48.628Z,25.70
2019-03-01T06:58:20.047Z,29.42
2019-03-01T07:00:50.677Z,27.32
2019-03-01T07:03:19.389Z,27.77
2019-03-01T07:05:47.996Z,64.80
2019-03-01T07:08:16.535Z,47.55
2019-03-01T07:10:45.012Z,54.42
2019-03-01T07:13:13.494Z,44.73
2019-03-01T07:15:42.034Z,37.00
2019-03-01T07:18:10.721Z,31.45
2019-03-01T07:20:39.336Z,29.18
2019-03-01T07:23:07.799Z,29.57
2019-03-01T07:25:36.365Z,30.70
2019-03-01T07:28:04.976Z,35.10
2019-03-01T07:30:33.608Z,36.50
2019-03-01T07:33:02.176Z,35.10
2019-03-01T07:35:30.715Z,30.95
2019-03-01T07:37:59.231Z,29.67
2019-03-01T07:40:27.787Z,29.32
2019-03-01T07:42:56.413Z,28.62
2019-03-01T07:45:24.893Z,28.95
2019-03-01T07:47:53.365Z,26.90
2019-03-01T07:50:21.848Z,29.92
2019-03-01T07:52:50.386Z,29.25
2019-03-01T07:55:19.036Z,29.95
2019-03-01T07:57:49.759Z,21.85
2019-03-01T08:00:18.209Z,28.02
2019-03-01T08:02:46.850Z,28.07
2019-03-01T08:05:16.567Z,27.32
2019-03-01T08:07:55.302Z,25.97
2019-03-01T08:10:20.540Z,26.30
2019-03-01T08:12:47.431Z,22.48
2019-03-01T08:15:17.317Z,26.42
2019-03-01T08:17:45.991Z,34.80
2019-03-01T08:20:16.099Z,32.42
2019-03-01T08:22:48.682Z,23.25
2019-03-01T08:25:15.057Z,23.80
2019-03-01T08:27:46.346Z,30.12
2019-03-01T08:30:17.722Z,26.40
2019-03-01T08:32:46.363Z,32.13
2019-03-01T08:35:18.582Z,25.10
2019-03-01T08:37:49.828Z,26.00
2019-03-01T08:40:18.163Z,25.08
2019-03-01T08:42:47.103Z,28.00
2019-03-01T08:45:20.203Z,27.37
2019-03-01T08:47:49.161Z,27.15
2019-03-01T08:50:18.046Z,26.07
2019-03-01T08:52:47.200Z,28.83
2019-03-01T08:55:18.364Z,27.05
2019-03-01T08:57:46.929Z,26.57
2019-03-01T09:00:26.699Z,25.68
2019-03-01T09:02:56.628Z,26.97
2019-03-01T09:05:25.165Z,27.73
2019-03-01T09:07:53.712Z,26.82
2019-03-01T09:10:22.350Z,27.52
2019-03-01T09:12:50.964Z,27.25
2019-03-01T09:15:19.605Z,28.02
2019-03-01T09:17:48.181Z,28.70
2019-03-01T09:20:16.995Z,30.35
2019-03-01T09:22:45.733Z,30.75
2019-03-01T09:25:15.537Z,27.87
2019-03-01T09:27:44.119Z,28.17
2019-03-01T09:30:15.872Z,28.77
2019-03-01T09:32:44.478Z,28.38
2019-03-01T09:35:20.511Z,27.80
2019-03-01T09:37:49.020Z,27.45
2019-03-01T09:40:17.664Z,29.85
2019-03-01T09:42:47.404Z,30.88
2019-03-01T09:45:16.419Z,29.00
2019-03-01T09:47:44.897Z,30.10
2019-03-01T09:50:13.715Z,29.63
2019-03-01T09:52:42.261Z,31.00
2019-03-01T09:55:12.301Z,30.68
2019-03-01T09:57:40.914Z,29.82
2019-03-01T10:00:15.483Z,29.60
2019-03-01T10:02:44.025Z,29.25
2019-03-01T10:05:14.066Z,27.10
2019-03-01T10:07:42.678Z,27.85
2019-03-01T10:10:13.403Z,28.98
2019-03-01T10:12:42.031Z,27.13
2019-03-01T10:15:12.601Z,27.07
2019-03-01T10:17:41.249Z,26.60
2019-03-01T10:20:12.797Z,25.30
2019-03-01T10:22:41.420Z,26.77
2019-03-01T10:25:17.972Z,26.95
2019-03-01T10:27:46.556Z,27.87
2019-03-01T10:30:17.272Z,26.52
2019-03-01T10:32:45.878Z,26.33
2019-03-01T10:35:15.602Z,27.67
2019-03-01T10:37:44.309Z,26.48
2019-03-01T10:40:26.497Z,26.82
2019-03-01T10:42:55.105Z,23.50
2019-03-01T10:45:28.380Z,23.52
2019-03-01T10:47:56.985Z,23.95
2019-03-01T10:50:25.629Z,24.87
2019-03-01T10:52:54.243Z,24.50
2019-03-01T10:55:23.055Z,25.48
2019-03-01T10:57:51.612Z,22.90
2019-03-01T11:00:30.460Z,24.55
2019-03-01T11:02:59.434Z,25.17
2019-03-01T11:05:28.028Z,25.30
2019-03-01T11:07:57.145Z,23.57
2019-03-01T11:10:28.681Z,26.80
2019-03-01T11:12:57.217Z,30.08
2019-03-01T11:15:25.860Z,25.85
2019-03-01T11:17:54.469Z,25.35
2019-03-01T11:20:23.387Z,30.25
2019-03-01T11:22:52.045Z,45.92
2019-03-01T11:25:22.765Z,24.60
2019-03-01T11:27:51.308Z,27.37
2019-03-01T11:30:22.863Z,29.35
2019-03-01T11:32:51.468Z,32.98
2019-03-01T11:35:20.172Z,29.42
2019-03-01T11:37:48.851Z,26.00
2019-03-01T11:40:22.710Z,25.80
2019-03-01T11:42:51.321Z,29.60
2019-03-01T11:45:19.977Z,30.20
2019-03-01T11:47:48.602Z,26.55
2019-03-01T11:50:24.607Z,27.30
2019-03-01T11:52:53.625Z,26.07
2019-03-01T11:55:22.365Z,27.75
2019-03-01T11:57:51.075Z,27.02
2019-03-01T12:00:27.590Z,26.68
2019-03-01T12:02:56.223Z,27.32
2019-03-01T12:05:24.840Z,27.85
2019-03-01T12:07:53.490Z,26.17
2019-03-01T12:10:26.795Z,27.82
2019-03-01T12:12:55.448Z,29.45
2019-03-01T12:15:24.071Z,27.95
2019-03-01T12:17:52.690Z,27.90
2019-03-01T12:20:23.668Z,28.52
2019-03-01T12:22:52.247Z,29.35
2019-03-01T12:25:20.784Z,30.10
2019-03-01T12:27:49.391Z,33.53
2019-03-01T12:30:20.437Z,34.78
2019-03-01T12:32:49.085Z,30.05
2019-03-01T12:35:17.689Z,28.50
2019-03-01T12:37:46.317Z,27.82
2019-03-01T12:40:20.386Z,27.67
2019-03-01T12:42:48.927Z,32.00
2019-03-01T12:45:17.532Z,30.60
2019-03-01T12:47:46.158Z,33.15
2019-03-01T12:50:15.150Z,42.48
2019-03-01T12:52:44.057Z,37.60
2019-03-01T12:55:20.825Z,30.02
2019-03-01T12:57:49.467Z,30.27
2019-03-01T13:00:35.328Z,30.45
2019-03-01T13:03:05.068Z,29.75
2019-03-01T13:05:34.232Z,37.88
2019-03-01T13:08:02.864Z,29.95
2019-03-01T13:10:36.713Z,29.87
2019-03-01T13:13:08.411Z,30.23
2019-03-01T13:15:37.143Z,30.17
2019-03-01T13:18:05.714Z,32.48
2019-03-01T13:20:37.279Z,33.13
2019-03-01T13:23:06.134Z,31.60
2019-03-01T13:25:34.952Z,36.25
2019-03-01T13:28:03.550Z,31.25
2019-03-01T13:30:35.451Z,31.93
2019-03-01T13:33:03.633Z,31.75
2019-03-01T13:35:32.294Z,31.35
2019-03-01T13:38:00.871Z,34.98
2019-03-01T13:40:29.411Z,31.30
2019-03-01T13:42:57.957Z,31.55
2019-03-01T13:45:26.960Z,34.03
2019-03-01T13:47:55.555Z,30.57
2019-03-01T13:50:24.302Z,31.45
2019-03-01T13:52:52.918Z,30.92
2019-03-01T13:55:23.466Z,31.80
2019-03-01T13:57:51.978Z,31.82
2019-03-01T14:00:21.583Z,31.73
2019-03-01T14:02:50.392Z,29.95
2019-03-01T14:05:19.333Z,32.17
2019-03-01T14:07:48.783Z,31.55
2019-03-01T14:10:19.420Z,31.85
2019-03-01T14:12:48.051Z,29.15
2019-03-01T14:15:17.756Z,30.65
2019-03-01T14:17:46.402Z,30.37
2019-03-01T14:20:21.101Z,33.65
2019-03-01T14:22:49.874Z,33.15
2019-03-01T14:25:18.584Z,36.05
2019-03-01T14:27:47.207Z,34.55
2019-03-01T14:30:25.292Z,34.15
2019-03-01T14:32:56.885Z,34.55
2019-03-01T14:35:25.970Z,35.15
2019-03-01T14:37:55.332Z,36.80
2019-03-01T14:40:24.333Z,36.70
2019-03-01T14:42:52.943Z,44.00
2019-03-01T14:45:30.014Z,44.23
2019-03-01T14:47:58.552Z,36.38
2019-03-01T14:50:29.980Z,36.45
2019-03-01T14:52:59.021Z,36.38
2019-03-01T14:55:39.583Z,35.63
2019-03-01T14:58:18.957Z,37.15
2019-03-01T15:00:55.305Z,35.60
2019-03-01T15:03:35.646Z,36.30
2019-03-01T15:06:04.760Z,42.60
2019-03-01T15:08:33.476Z,37.83
2019-03-01T15:11:07.942Z,37.65
2019-03-01T15:13:35.890Z,36.13
2019-03-01T15:16:06.070Z,39.70
2019-03-01T15:18:35.174Z,41.55
2019-03-01T15:21:04.001Z,41.23
2019-03-01T15:23:32.641Z,42.23
2019-03-01T15:26:01.265Z,44.42
2019-03-01T15:28:29.874Z,45.30
2019-03-01T15:30:58.509Z,39.70
2019-03-01T15:33:27.048Z,40.23
2019-03-01T15:35:55.629Z,45.92
2019-03-01T15:38:27.687Z,45.43
2019-03-01T15:40:54.420Z,41.48
2019-03-01T15:43:22.917Z,41.05
2019-03-01T15:45:51.513Z,37.25
2019-03-01T15:48:20.079Z,39.18
2019-03-01T15:50:48.687Z,42.25
2019-03-01T15:53:17.257Z,38.17
2019-03-01T15:55:45.773Z,38.13
2019-03-01T15:58:14.388Z,36.42
2019-03-01T16:00:43.016Z,36.23
2019-03-01T16:03:11.647Z,47.15
2019-03-01T16:05:40.295Z,37.10
2019-03-01T16:08:09.252Z,31.45
2019-03-01T16:10:37.905Z,29.67
2019-03-01T16:13:11.618Z,34.88
2019-03-01T16:15:38.756Z,29.35
2019-03-01T16:18:07.240Z,26.87
2019-03-01T16:20:35.873Z,49.05
2019-03-01T16:23:04.514Z,29.77
2019-03-01T16:25:33.044Z,31.48
2019-03-01T16:28:01.627Z,42.07
2019-03-01T16:30:30.234Z,32.23
2019-03-01T16:32:58.701Z,44.30
2019-03-01T16:35:27.333Z,25.15
2019-03-01T16:37:57.957Z,22.95
2019-03-01T16:40:27.820Z,30.97
2019-03-01T16:42:56.427Z,23.98
2019-03-01T16:45:24.978Z,22.22
2019-03-01T16:47:53.540Z,21.62
2019-03-01T16:50:22.066Z,27.13
2019-03-01T16:52:50.686Z,28.23
2019-03-01T16:55:24.409Z,21.05
2019-03-01T16:57:52.292Z,16.27
2019-03-01T17:00:23.489Z,16.35
2019-03-01T17:03:03.847Z,18.27
2019-03-01T17:05:35.746Z,18.52
2019-03-01T17:08:05.770Z,25.65
2019-03-01T17:10:33.252Z,21.60
2019-03-01T17:13:01.859Z,22.98
2019-03-01T17:15:30.524Z,23.18
2019-03-01T17:17:59.149Z,33.53
2019-03-01T17:20:27.749Z,26.97
2019-03-01T17:22:59.805Z,39.27
2019-03-01T17:25:27.645Z,20.08
2019-03-01T17:27:56.474Z,19.95
2019-03-01T17:30:27.967Z,17.90
2019-03-01T17:32:56.507Z,30.27
2019-03-01T17:35:25.143Z,57.17
2019-03-01T17:37:53.758Z,26.10
2019-03-01T17:40:22.618Z,14.40
2019-03-01T17:42:53.180Z,12.37
2019-03-01T17:45:24.430Z,10.85
2019-03-01T17:47:55.197Z,10.40
2019-03-01T17:50:23.173Z,11.22
2019-03-01T17:52:51.806Z,11.73
2019-03-01T17:55:28.010Z,8.85
2019-03-01T17:57:56.590Z,8.63
2019-03-01T18:00:36.452Z,16.15
2019-03-01T18:03:05.787Z,9.43
2019-03-01T18:05:36.931Z,23.38
2019-03-01T18:08:05.042Z,8.93
2019-03-01T18:10:33.655Z,8.33
2019-03-01T18:13:02.188Z,9.33
2019-03-01T18:15:30.802Z,9.70
2019-03-01T18:17:59.416Z,9.73
2019-03-01T18:20:28.054Z,9.20
2019-03-01T18:22:59.354Z,10.40
2019-03-01T18:25:27.230Z,10.93
2019-03-01T18:27:55.758Z,11.85
2019-03-01T18:30:30.022Z,10.50
2019-03-01T18:32:58.702Z,10.00
2019-03-01T18:35:27.309Z,15.17
2019-03-01T18:37:56.166Z,10.93
2019-03-01T18:40:24.773Z,11.30
2019-03-01T18:42:53.418Z,12.95
2019-03-01T18:45:23.061Z,12.60
2019-03-01T18:47:51.681Z,17.40
2019-03-01T18:50:33.817Z,12.07
2019-03-01T18:53:04.009Z,10.75
2019-03-01T18:55:32.871Z,9.15
2019-03-01T18:58:01.464Z,18.32
2019-03-01T19:00:36.894Z,20.08
2019-03-01T19:03:06.214Z,31.65
2019-03-01T19:05:36.609Z,23.35
2019-03-01T19:08:06.157Z,48.17
2019-03-01T19:10:35.481Z,55.75
2019-03-01T19:13:04.184Z,37.00
2019-03-01T19:15:32.818Z,49.30
2019-03-01T19:18:01.540Z,42.23
2019-03-01T19:20:41.534Z,29.90
2019-03-01T19:23:08.688Z,27.40
2019-03-01T19:25:37.261Z,25.57
2019-03-01T19:28:05.871Z,25.75
2019-03-01T19:30:34.487Z,28.73
2019-03-01T19:33:03.415Z,25.57
2019-03-01T19:35:32.051Z,24.52
2019-03-01T19:38:00.652Z,23.90
2019-03-01T19:40:29.293Z,26.27
2019-03-01T19:42:57.903Z,23.07
2019-03-01T19:45:26.508Z,22.77
2019-03-01T19:48:01.560Z,43.95
2019-03-01T19:50:26.784Z,32.80
2019-03-01T19:52:55.420Z,24.30
2019-03-01T19:55:24.042Z,22.73
2019-03-01T19:57:52.541Z,22.77
2019-03-01T20:00:31.983Z,27.83
2019-03-01T20:03:00.464Z,25.57
2019-03-01T20:05:31.642Z,30.87
2019-03-01T20:08:01.632Z,24.70
2019-03-01T20:10:30.244Z,29.00
2019-03-01T20:12:58.851Z,25.52
2019-03-01T20:15:28.791Z,23.40
2019-03-01T20:17:57.407Z,24.27
2019-03-01T20:20:29.851Z,23.18
2019-03-01T20:22:57.764Z,22.00
2019-03-01T20:25:26.294Z,22.80
2019-03-01T20:27:54.863Z,23.38
2019-03-01T20:30:31.173Z,20.52
2019-03-01T20:32:59.721Z,19.67
2019-03-01T20:35:28.358Z,20.02
2019-03-01T20:38:00.051Z,18.75
2019-03-01T20:40:28.249Z,20.97
2019-03-01T20:43:00.451Z,19.98
2019-03-01T20:45:38.612Z,23.18
2019-03-01T20:48:07.251Z,19.62
2019-03-01T20:50:36.638Z,18.82
2019-03-01T20:53:05.360Z,18.87
2019-03-01T20:55:37.144Z,19.20
2019-03-01T20:58:04.399Z,28.40
2019-03-01T21:00:33.001Z,23.20
2019-03-01T21:03:01.547Z,19.95
2019-03-01T21:05:30.556Z,20.43
2019-03-01T21:07:59.497Z,23.57
2019-03-01T21:10:32.581Z,20.87
2019-03-01T21:13:01.122Z,21.70
2019-03-01T21:15:29.860Z,21.77
2019-03-01T21:17:58.822Z,20.47
2019-03-01T21:20:27.576Z,23.85
2019-03-01T21:22:56.353Z,23.65
2019-03-01T21:25:25.594Z,21.02
2019-03-01T21:27:54.197Z,21.33
2019-03-01T21:30:30.967Z,20.53
2019-03-01T21:32:59.570Z,21.95
2019-03-01T21:35:28.300Z,23.10
2019-03-01T21:37:57.107Z,22.17
2019-03-01T21:40:25.960Z,22.57
2019-03-01T21:42:59.844Z,22.65
2019-03-01T21:45:26.792Z,23.17
2019-03-01T21:47:55.394Z,26.00
2019-03-01T21:50:23.958Z,24.43
2019-03-01T21:52:52.617Z,24.20
2019-03-01T21:55:28.587Z,22.95
2019-03-01T21:57:56.320Z,20.08
2019-03-01T22:00:31.365Z,19.02
2019-03-01T22:02:59.137Z,18.83
2019-03-01T22:05:27.859Z,26.93
2019-03-01T22:07:56.466Z,18.93
2019-03-01T22:10:25.029Z,19.00
2019-03-01T22:12:56.881Z,18.37
2019-03-01T22:15:27.718Z,18.10
2019-03-01T22:17:56.778Z,16.97
2019-03-01T22:20:25.425Z,17.47
2019-03-01T22:22:54.074Z,15.98
2019-03-01T22:25:22.780Z,17.60
2019-03-01T22:27:51.435Z,16.10
2019-03-01T22:30:33.099Z,19.60
2019-03-01T22:33:01.624Z,16.83
2019-03-01T22:35:30.176Z,15.80
2019-03-01T22:38:01.006Z,16.63
2019-03-01T22:40:29.513Z,18.70
2019-03-01T22:42:58.284Z,18.50
2019-03-01T22:45:26.889Z,18.60
2019-03-01T22:47:55.389Z,16.37
2019-03-01T22:50:24.887Z,16.97
2019-03-01T22:52:53.504Z,17.07
2019-03-01T22:55:22.119Z,15.60
2019-03-01T22:57:50.784Z,16.73
2019-03-01T23:00:29.949Z,18.10
2019-03-01T23:02:58.687Z,14.97
2019-03-01T23:05:27.293Z,16.20
2019-03-01T23:07:56.799Z,14.83
2019-03-01T23:10:26.033Z,14.43
2019-03-01T23:12:54.574Z,15.08
2019-03-01T23:15:23.212Z,15.07
2019-03-01T23:17:51.761Z,17.03
2019-03-01T23:20:26.321Z,13.80
2019-03-01T23:22:50.589Z,14.00
2019-03-01T23:25:19.101Z,14.60
2019-03-01T23:27:47.647Z,13.87
2019-03-01T23:30:17.396Z,13.07
2019-03-01T23:32:48.762Z,13.30
2019-03-01T23:35:18.161Z,12.50
2019-03-01T23:37:46.611Z,12.37
2019-03-01T23:40:15.625Z,12.50
2019-03-01T23:42:44.186Z,12.10
2019-03-01T23:45:13.681Z,11.67
2019-03-01T23:47:43.151Z,10.63
2019-03-01T23:50:11.771Z,10.87
2019-03-01T23:52:40.266Z,11.30
2019-03-01T23:55:09.276Z,11.30
2019-03-01T23:57:40.883Z,11.87
